createdAt,value
2023-01-19T18:21:54.901Z,8.45
2023-01-19T18:25:43.130Z,8.43
2023-01-19T18:29:31.581Z,8.44
2023-01-19T18:33:08.869Z,8.44
2023-01-19T18:36:58.903Z,8.43
2023-01-19T18:40:37.441Z,8.42
2023-01-19T18:44:05.598Z,8.43
2023-01-19T18:47:48.920Z,8.42
2023-01-19T18:52:06.278Z,8.40
2023-01-19T19:04:34.235Z,8.29
2023-01-19T19:19:34.607Z,8.19
2023-01-19T19:22:39.886Z,8.18
2023-01-19T19:25:45.280Z,8.19
2023-01-19T19:28:49.256Z,8.19
2023-01-19T19:31:57.313Z,8.18
2023-01-19T19:35:03.423Z,8.15
2023-01-19T19:38:10.441Z,8.13
2023-01-19T19:41:21.221Z,8.10
2023-01-19T19:44:27.959Z,8.09
2023-01-19T19:47:35.787Z,8.10
2023-01-19T19:50:46.721Z,8.10
2023-01-19T19:53:54.127Z,8.10
2023-01-19T19:56:59.421Z,8.11
2023-01-19T20:00:13.527Z,8.13
2023-01-19T20:03:22.290Z,8.13
2023-01-19T20:06:29.389Z,8.11
2023-01-19T20:09:44.488Z,8.10
2023-01-19T20:27:19.497Z,8.19
2023-01-19T20:31:15.246Z,8.14
2023-01-19T20:40:15.487Z,7.91
2023-01-19T20:43:20.595Z,7.83
2023-01-19T20:46:26.315Z,7.79
2023-01-19T20:49:34.039Z,7.76
2023-01-19T20:52:37.333Z,7.72
2023-01-19T20:55:41.339Z,7.69
2023-01-19T20:59:44.462Z,7.67
2023-01-19T21:02:51.635Z,7.64
2023-01-19T21:06:06.344Z,7.61
2023-01-19T21:09:12.348Z,7.59
2023-01-19T21:12:20.028Z,7.57
2023-01-19T21:15:23.560Z,7.57
2023-01-19T21:19:43.848Z,7.57
2023-01-19T21:22:48.330Z,7.59
2023-01-19T21:25:56.553Z,7.61
2023-01-19T21:29:26.958Z,7.63
2023-01-19T21:32:56.076Z,7.67
2023-01-19T21:36:03.553Z,7.72
2023-01-19T21:39:09.630Z,7.77
2023-01-19T21:42:14.562Z,7.81
2023-01-19T21:45:43.189Z,7.84
2023-01-19T21:48:49.551Z,7.87
2023-01-19T21:51:52.379Z,7.88
2023-01-19T21:54:58.327Z,7.91
2023-01-19T21:58:08.067Z,7.93
2023-01-19T22:04:56.096Z,7.89
2023-01-19T22:08:01.815Z,7.92
2023-01-19T22:11:30.828Z,7.92
2023-01-19T22:14:37.819Z,7.94
2023-01-19T22:18:58.398Z,7.96
2023-01-19T22:43:22.043Z,8.01
2023-01-19T22:57:37.128Z,8.09
2023-01-19T23:02:20.686Z,8.09
2023-01-19T23:06:42.575Z,8.10
2023-01-19T23:09:49.578Z,8.12
2023-01-19T23:13:01.145Z,8.11
2023-01-19T23:16:56.170Z,8.12
2023-01-19T23:32:08.893Z,8.19
2023-01-19T23:35:17.673Z,8.20
2023-01-19T23:44:42.159Z,8.27
2023-01-19T23:47:46.889Z,8.30
2023-01-19T23:52:09.468Z,8.30
2023-01-19T23:55:13.314Z,8.30
2023-01-19T23:59:32.197Z,8.30
